Cordes Lakes, Arizona
Current Conditions -  °F | °C
As of 8:55 AM on Saturday 22 Nov 2014 (Local Time) from KPAN Reporting Station
Clear Clear  
Wind Chill: 46°   Ceiling: Unl
Heat Index: 46°   Visibility: 10mi
Dew Point: 19°   Wind: 0mph
Humidity: 34%   Direction: NA
Pressure: 30.15"   Gusts: NA
Location:  34.2564°N, 111.978°W
Report Text: KPAN 221555Z AUTO 00000KT 10SM CLR 08/M07 A3015 RMK AO2
Loading
Personal Weather Stations






























Interactive Weather Map New forecast layout! Learn more

10-Day Weather Forecast

Advertisements
Track Severe Weather on mobile